Time;durP1;ratioP1;P1;durP2;ratioP2;P2;SDS_P1;SDS_P2;PMS_P1;PMS_P2;Temp;Humidity;BMP_temperature;BMP_pressure;BME280_temperature;BME280_humidity;BME280_pressure;Samples;Min_cycle;Max_cycle;Signal;HPM_P1;HPM_P2
2023/09/08 00:01:20;;;;;;;4.50;4.20;;;23.00;67.20;;;;;;5075019;28;20618;-62
2023/09/08 00:03:46;;;;;;;3.80;3.60;;;23.00;67.30;;;;;;5075417;28;20186;-61
2023/09/08 00:06:12;;;;;;;4.20;3.90;;;23.00;67.20;;;;;;5074377;28;20181;-62
2023/09/08 00:08:37;;;;;;;4.10;3.78;;;23.00;67.20;;;;;;5075489;28;20190;-62
2023/09/08 00:11:04;;;;;;;3.90;3.60;;;23.00;67.20;;;;;;5075021;28;20174;-61
2023/09/08 00:13:30;;;;;;;4.28;3.88;;;23.00;67.20;;;;;;5074714;28;20274;-61
2023/09/08 00:15:55;;;;;;;4.35;3.95;;;23.00;67.20;;;;;;5075404;28;20237;-61
2023/09/08 00:18:21;;;;;;;4.18;3.80;;;23.00;67.20;;;;;;5074944;28;20513;-61
2023/09/08 00:20:46;;;;;;;4.30;4.00;;;23.00;67.20;;;;;;5074401;28;20693;-62
2023/09/08 00:23:12;;;;;;;4.18;3.88;;;23.00;67.20;;;;;;5074729;28;20177;-61
2023/09/08 00:25:38;;;;;;;4.32;4.03;;;23.00;67.10;;;;;;5074942;28;20274;-61
2023/09/08 00:28:03;;;;;;;3.83;3.53;;;23.00;67.20;;;;;;5074097;28;20171;-61
2023/09/08 00:30:29;;;;;;;4.07;3.78;;;23.00;67.10;;;;;;5075090;28;20174;-60
2023/09/08 00:32:55;;;;;;;4.00;3.70;;;23.00;67.20;;;;;;5074960;28;20194;-61
2023/09/08 00:35:20;;;;;;;4.55;4.18;;;23.00;67.20;;;;;;5073908;28;20202;-61
2023/09/08 00:37:46;;;;;;;3.95;3.65;;;23.00;67.10;;;;;;5075005;28;20170;-62
2023/09/08 00:40:11;;;;;;;4.28;3.97;;;23.00;67.90;;;;;;5074404;28;20174;-61
2023/09/08 00:42:37;;;;;;;4.22;3.92;;;23.00;67.90;;;;;;5074090;28;20181;-62
2023/09/08 00:45:03;;;;;;;4.35;4.05;;;23.00;67.10;;;;;;5074677;28;20257;-61
2023/09/08 00:47:29;;;;;;;4.32;4.03;;;23.00;67.10;;;;;;5074681;28;20175;-61
2023/09/08 00:49:54;;;;;;;4.10;3.80;;;23.00;67.10;;;;;;5073956;28;20596;-61
2023/09/08 00:52:20;;;;;;;4.43;4.13;;;23.00;67.90;;;;;;5074303;28;20217;-61
2023/09/08 00:54:46;;;;;;;3.63;3.33;;;23.00;67.10;;;;;;5074370;28;20209;-60
2023/09/08 00:57:11;;;;;;;4.40;4.10;;;23.00;67.10;;;;;;5073647;28;20182;-61
2023/09/08 00:59:37;;;;;;;4.28;3.85;;;23.00;67.00;;;;;;5074388;28;20697;-60
2023/09/08 01:02:02;;;;;;;4.78;4.30;;;23.00;67.10;;;;;;5073084;28;20210;-61
2023/09/08 01:04:28;;;;;;;4.25;3.95;;;23.00;67.00;;;;;;5073543;28;20748;-61
2023/09/08 01:06:54;;;;;;;4.57;4.18;;;23.00;67.00;;;;;;5074316;28;20175;-62
2023/09/08 01:09:19;;;;;;;3.97;3.67;;;23.00;67.00;;;;;;5073075;28;20170;-62
2023/09/08 01:11:45;;;;;;;5.03;3.90;;;23.00;67.00;;;;;;5073155;28;20175;-61
2023/09/08 01:14:14;;;;;;;4.68;4.20;;;23.00;67.00;;;;;;5072822;28;20204;-61
2023/09/08 01:16:42;;;;;;;4.30;4.00;;;23.00;67.00;;;;;;5072067;28;20237;-61
2023/09/08 01:19:11;;;;;;;4.40;4.03;;;23.00;67.00;;;;;;5073810;28;20648;-61
2023/09/08 01:21:48;;;;;;;4.72;4.32;;;23.00;67.00;;;;;;5074002;28;20186;-61
2023/09/08 01:24:44;;;;;;;4.32;3.95;;;23.00;66.90;;;;;;5072905;28;20521;-61
2023/09/08 01:27:10;;;;;;;4.53;3.97;;;23.00;67.70;;;;;;5073547;28;20202;-61
2023/09/08 01:29:36;;;;;;;4.20;3.90;;;22.90;66.80;;;;;;5072519;28;20583;-60
2023/09/08 01:32:04;;;;;;;4.40;4.03;;;22.90;66.80;;;;;;5072811;28;20167;-60
2023/09/08 01:34:29;;;;;;;5.07;4.68;;;22.90;66.90;;;;;;5072395;28;20174;-61
2023/09/08 01:36:56;;;;;;;4.72;4.32;;;23.00;66.80;;;;;;5072696;28;20181;-61
2023/09/08 01:39:22;;;;;;;4.97;4.57;;;22.90;66.80;;;;;;5072650;28;20174;-62
2023/09/08 01:41:47;;;;;;;4.40;4.10;;;23.00;66.90;;;;;;5073605;28;20193;-62
2023/09/08 01:44:13;;;;;;;4.28;3.97;;;23.00;66.80;;;;;;5073253;28;20166;-61
2023/09/08 01:46:40;;;;;;;4.78;4.38;;;22.90;66.80;;;;;;5072807;28;20174;-62
2023/09/08 01:49:06;;;;;;;4.82;4.43;;;22.90;66.80;;;;;;5073388;28;20182;-62
2023/09/08 01:51:31;;;;;;;4.72;4.30;;;22.90;66.80;;;;;;5072763;28;20178;-61
2023/09/08 01:53:57;;;;;;;4.35;4.05;;;22.90;66.80;;;;;;5073268;28;20222;-61
2023/09/08 01:56:22;;;;;;;4.18;3.88;;;22.90;66.70;;;;;;5072940;28;20217;-61
2023/09/08 01:58:48;;;;;;;4.25;3.95;;;22.90;66.70;;;;;;5072442;28;20222;-60
2023/09/08 02:01:14;;;;;;;4.60;4.30;;;22.90;66.70;;;;;;5073080;28;20645;-61
2023/09/08 02:03:39;;;;;;;4.57;4.18;;;22.90;66.80;;;;;;5073381;28;20204;-61
2023/09/08 02:06:05;;;;;;;4.15;3.85;;;22.90;66.70;;;;;;5072247;28;20171;-62
2023/09/08 02:08:30;;;;;;;4.20;3.90;;;22.90;66.70;;;;;;5073234;28;20177;-61
2023/09/08 02:10:56;;;;;;;4.55;4.15;;;22.90;67.50;;;;;;5073541;28;20212;-61
2023/09/08 02:13:21;;;;;;;4.57;4.18;;;22.90;66.70;;;;;;5071937;28;20170;-61
2023/09/08 02:15:47;;;;;;;4.55;4.25;;;22.90;66.60;;;;;;5072889;28;20292;-61
2023/09/08 02:18:13;;;;;;;4.60;4.20;;;22.90;66.70;;;;;;5072622;28;20249;-61
2023/09/08 02:20:38;;;;;;;4.50;4.20;;;22.80;67.40;;;;;;5072466;28;20179;-61
2023/09/08 02:23:05;;;;;;;4.57;4.28;;;22.90;66.60;;;;;;5072601;28;20166;-62
2023/09/08 02:25:31;;;;;;;4.97;4.57;;;22.90;66.60;;;;;;5072919;28;20228;-61
2023/09/08 02:27:56;;;;;;;4.47;4.18;;;22.90;66.70;;;;;;5072259;28;20182;-61
2023/09/08 02:30:22;;;;;;;4.65;4.30;;;22.90;66.60;;;;;;5072614;28;20174;-60
2023/09/08 02:32:47;;;;;;;4.65;4.35;;;22.90;66.60;;;;;;5072834;28;20166;-60
2023/09/08 02:35:13;;;;;;;4.80;4.45;;;22.90;66.70;;;;;;5071952;28;20304;-61
2023/09/08 02:37:38;;;;;;;4.95;4.55;;;22.90;66.60;;;;;;5072780;28;20212;-63
2023/09/08 02:40:06;;;;;;;5.45;4.97;;;22.90;66.70;;;;;;5072689;28;20212;-61
2023/09/08 02:42:31;;;;;;;4.75;4.35;;;22.90;66.60;;;;;;5071998;28;20178;-63
2023/09/08 02:44:57;;;;;;;5.30;4.80;;;22.90;66.60;;;;;;5072889;28;20586;-62
2023/09/08 02:47:22;;;;;;;4.50;4.20;;;22.90;66.60;;;;;;5072550;28;20174;-62
2023/09/08 02:49:48;;;;;;;4.45;4.05;;;22.90;66.60;;;;;;5072060;28;20173;-62
2023/09/08 02:52:13;;;;;;;4.80;4.30;;;22.90;66.60;;;;;;5072431;28;20174;-61
2023/09/08 02:54:39;;;;;;;4.85;4.40;;;22.90;66.60;;;;;;5071970;28;20194;-61
2023/09/08 02:57:05;;;;;;;4.80;4.40;;;22.80;66.50;;;;;;5072337;28;20175;-60
2023/09/08 02:59:30;;;;;;;4.50;4.20;;;22.90;66.50;;;;;;5072290;28;20321;-62
2023/09/08 03:01:56;;;;;;;4.80;4.45;;;22.80;66.50;;;;;;5071728;28;20178;-61
2023/09/08 03:04:21;;;;;;;4.47;4.18;;;22.90;66.50;;;;;;5072449;28;20174;-61
2023/09/08 03:06:47;;;;;;;4.90;4.53;;;22.90;66.50;;;;;;5072644;28;20173;-62
2023/09/08 03:09:13;;;;;;;4.75;4.35;;;22.80;66.50;;;;;;5071542;28;20174;-61
2023/09/08 03:11:38;;;;;;;4.57;4.28;;;22.80;66.50;;;;;;5072447;28;20217;-61
2023/09/08 03:14:04;;;;;;;4.28;3.97;;;22.80;66.50;;;;;;5072173;28;20178;-61
2023/09/08 03:16:30;;;;;;;4.60;4.30;;;22.80;66.50;;;;;;5071594;28;20210;-61
2023/09/08 03:18:55;;;;;;;4.80;4.40;;;22.80;66.50;;;;;;5072391;28;20174;-61
2023/09/08 03:21:21;;;;;;;4.55;4.15;;;22.90;66.50;;;;;;5072231;28;20178;-61
2023/09/08 03:23:46;;;;;;;5.07;4.70;;;22.80;67.30;;;;;;5071809;28;20673;-60
2023/09/08 03:26:12;;;;;;;5.05;4.65;;;22.80;66.40;;;;;;5072052;28;20684;-61
2023/09/08 03:28:41;;;;;;;4.75;4.35;;;22.80;66.40;;;;;;5072324;28;20224;-60
2023/09/08 03:31:06;;;;;;;4.63;4.20;;;22.90;66.50;;;;;;5071322;28;20705;-60
2023/09/08 03:33:32;;;;;;;4.55;4.15;;;22.80;66.40;;;;;;5072313;28;20265;-60
2023/09/08 03:35:58;;;;;;;4.85;4.45;;;22.80;66.40;;;;;;5075960;28;20221;-61
2023/09/08 03:38:23;;;;;;;4.50;4.20;;;22.80;66.40;;;;;;5075244;28;20177;-61
2023/09/08 03:40:49;;;;;;;4.70;4.38;;;22.80;66.40;;;;;;5075946;28;20185;-61
2023/09/08 03:43:14;;;;;;;5.47;4.97;;;22.80;66.40;;;;;;5075670;28;20170;-61
2023/09/08 03:45:41;;;;;;;4.88;4.47;;;22.80;66.40;;;;;;5075084;28;20272;-61
2023/09/08 03:48:06;;;;;;;4.85;4.45;;;22.80;66.40;;;;;;5075724;28;20177;-62
2023/09/08 03:50:32;;;;;;;5.03;4.68;;;22.80;66.40;;;;;;5075808;28;20665;-61
2023/09/08 03:52:57;;;;;;;5.20;4.80;;;22.80;66.40;;;;;;5074733;28;20585;-61
2023/09/08 03:55:23;;;;;;;5.03;4.63;;;22.80;66.40;;;;;;5075583;28;20201;-61
2023/09/08 03:57:49;;;;;;;5.03;4.63;;;22.80;66.40;;;;;;5075591;28;20249;-60
2023/09/08 04:00:20;;;;;;;4.88;4.47;;;22.80;66.40;;;;;;5074287;28;20233;-61
2023/09/08 04:02:46;;;;;;;4.90;4.50;;;22.80;66.40;;;;;;5075564;28;20178;-61
2023/09/08 04:05:12;;;;;;;5.30;4.80;;;22.80;66.40;;;;;;5074403;28;20185;-61
2023/09/08 04:07:37;;;;;;;4.85;4.50;;;22.70;66.30;;;;;;5075520;28;20175;-62
2023/09/08 04:10:03;;;;;;;4.88;4.47;;;22.80;66.40;;;;;;5075049;28;20181;-61
2023/09/08 04:12:29;;;;;;;5.25;4.75;;;22.80;66.30;;;;;;5074571;28;20308;-61
2023/09/08 04:14:54;;;;;;;4.45;4.07;;;22.80;66.40;;;;;;5075273;28;20565;-61
2023/09/08 04:17:20;;;;;;;4.65;4.35;;;22.80;66.40;;;;;;5075040;28;20189;-61
2023/09/08 04:19:45;;;;;;;4.82;4.43;;;22.70;66.20;;;;;;5074655;28;20252;-61
2023/09/08 04:22:11;;;;;;;5.22;4.78;;;22.80;66.40;;;;;;5074804;28;20197;-61
2023/09/08 04:24:37;;;;;;;4.28;3.97;;;22.80;66.40;;;;;;5074984;28;20181;-61
2023/09/08 04:27:03;;;;;;;5.25;4.80;;;22.70;66.20;;;;;;5074286;28;20182;-60
2023/09/08 04:29:29;;;;;;;5.00;4.60;;;22.80;66.30;;;;;;5074961;28;20621;-60
2023/09/08 04:31:54;;;;;;;4.80;4.40;;;22.70;66.20;;;;;;5075218;28;20216;-61
2023/09/08 04:34:20;;;;;;;5.05;4.65;;;22.70;66.20;;;;;;5074060;28;20650;-61
2023/09/08 04:36:45;;;;;;;4.72;4.40;;;22.80;66.30;;;;;;5074896;28;20583;-62
2023/09/08 04:39:11;;;;;;;4.97;4.68;;;22.70;66.20;;;;;;5074516;28;20592;-62
2023/09/08 04:41:37;;;;;;;5.55;5.05;;;22.70;66.20;;;;;;5074156;28;20175;-62
2023/09/08 04:44:03;;;;;;;5.18;4.63;;;22.70;66.20;;;;;;5074471;28;20197;-62
2023/09/08 04:46:28;;;;;;;5.03;4.60;;;22.70;66.20;;;;;;5074597;28;20202;-62
2023/09/08 04:48:54;;;;;;;5.45;5.00;;;22.70;66.20;;;;;;5074094;28;20582;-61
2023/09/08 04:51:19;;;;;;;5.05;4.65;;;22.70;66.20;;;;;;5074440;28;20178;-62
2023/09/08 04:53:45;;;;;;;4.68;4.30;;;22.70;66.70;;;;;;5074966;28;20189;-60
2023/09/08 04:56:11;;;;;;;5.05;4.60;;;22.70;66.20;;;;;;5073407;28;20202;-60
2023/09/08 04:58:37;;;;;;;4.82;4.43;;;22.70;66.20;;;;;;5074320;28;20255;-60
2023/09/08 05:01:02;;;;;;;5.00;4.60;;;22.70;66.20;;;;;;5074151;28;20217;-60
2023/09/08 05:03:28;;;;;;;5.30;4.90;;;22.70;66.20;;;;;;5073652;28;20167;-61
2023/09/08 05:05:53;;;;;;;4.90;4.50;;;22.70;66.20;;;;;;5074416;28;20583;-62
2023/09/08 05:08:19;;;;;;;4.68;4.32;;;22.70;66.20;;;;;;5073236;28;20171;-62
2023/09/08 05:10:44;;;;;;;4.80;4.40;;;22.70;66.10;;;;;;5074211;28;20170;-62
2023/09/08 05:13:10;;;;;;;5.40;4.95;;;22.70;66.10;;;;;;5073675;28;20190;-61
2023/09/08 05:15:36;;;;;;;4.97;4.60;;;22.70;66.10;;;;;;5073304;28;20333;-60
2023/09/08 05:18:01;;;;;;;5.55;5.05;;;22.70;66.10;;;;;;5074055;28;20194;-60
2023/09/08 05:20:27;;;;;;;5.00;4.55;;;22.70;66.10;;;;;;5073979;28;20174;-60
2023/09/08 05:22:52;;;;;;;5.85;5.38;;;22.70;66.10;;;;;;5073329;28;20186;-60
2023/09/08 05:25:18;;;;;;;4.60;4.28;;;22.70;66.10;;;;;;5073658;28;20174;-60
2023/09/08 05:27:45;;;;;;;5.15;4.75;;;22.70;66.10;;;;;;5073764;28;20187;-60
2023/09/08 05:30:11;;;;;;;5.25;4.85;;;22.70;66.10;;;;;;5073057;28;20249;-59
2023/09/08 05:32:37;;;;;;;4.95;4.55;;;22.70;66.10;;;;;;5073919;28;20258;-60
2023/09/08 05:35:02;;;;;;;5.65;5.20;;;22.70;66.10;;;;;;5073495;28;20561;-60
2023/09/08 05:37:28;;;;;;;5.13;4.72;;;22.70;66.00;;;;;;5072924;28;20178;-61
2023/09/08 05:39:53;;;;;;;5.20;4.80;;;22.70;66.00;;;;;;5073546;28;20549;-61
2023/09/08 05:42:19;;;;;;;5.68;5.20;;;22.70;66.00;;;;;;5073144;28;20235;-61
2023/09/08 05:44:46;;;;;;;4.82;4.53;;;22.70;66.00;;;;;;5072987;28;20506;-61
2023/09/08 05:47:11;;;;;;;5.57;5.18;;;22.70;66.00;;;;;;5073105;28;20174;-61
2023/09/08 05:49:37;;;;;;;5.35;4.85;;;22.70;66.00;;;;;;5073562;28;20224;-60
2023/09/08 05:52:02;;;;;;;5.13;4.72;;;22.70;66.00;;;;;;5072498;28;20171;-60
2023/09/08 05:54:30;;;;;;;5.18;4.75;;;22.70;66.00;;;;;;5073230;28;20166;-60
2023/09/08 05:56:55;;;;;;;5.20;4.80;;;22.70;66.00;;;;;;5072755;28;20577;-59
2023/09/08 05:59:21;;;;;;;5.43;5.03;;;22.70;66.00;;;;;;5072098;28;20277;-60
2023/09/08 06:01:46;;;;;;;5.07;4.68;;;22.70;66.80;;;;;;5073200;28;20177;-60
2023/09/08 06:04:12;;;;;;;5.68;5.18;;;22.70;66.00;;;;;;5072943;28;20166;-60
2023/09/08 06:06:37;;;;;;;6.00;5.50;;;22.70;66.00;;;;;;5072395;28;20626;-61
2023/09/08 06:09:05;;;;;;;5.30;4.90;;;22.60;65.90;;;;;;5072921;28;20177;-62
2023/09/08 06:11:31;;;;;;;5.75;5.25;;;22.70;65.90;;;;;;5072850;28;20174;-62
2023/09/08 06:13:59;;;;;;;5.22;4.72;;;22.60;65.90;;;;;;5072717;28;20201;-62
2023/09/08 06:16:25;;;;;;;5.32;4.88;;;22.70;66.00;;;;;;5073080;28;20257;-61
2023/09/08 06:18:50;;;;;;;5.40;4.90;;;22.70;66.80;;;;;;5072504;28;20170;-61
2023/09/08 06:21:16;;;;;;;5.75;5.25;;;22.70;66.00;;;;;;5072840;28;20182;-65
2023/09/08 06:23:41;;;;;;;5.38;4.97;;;22.70;65.90;;;;;;5073015;28;20259;-61
2023/09/08 06:26:10;;;;;;;5.10;4.70;;;22.70;65.90;;;;;;5071900;28;20209;-62
2023/09/08 06:28:35;;;;;;;5.53;5.03;;;22.70;65.90;;;;;;5072760;28;20630;-61
2023/09/08 06:31:01;;;;;;;5.28;4.88;;;22.70;65.90;;;;;;5072809;28;20178;-61
2023/09/08 06:33:26;;;;;;;5.13;4.72;;;22.70;65.90;;;;;;5072114;28;20549;-61
2023/09/08 06:35:53;;;;;;;4.80;4.40;;;22.70;65.90;;;;;;5072686;28;20234;-60
2023/09/08 06:38:19;;;;;;;5.03;4.60;;;22.70;65.90;;;;;;5072300;28;20184;-61
2023/09/08 06:40:44;;;;;;;4.80;4.40;;;22.70;65.90;;;;;;5072018;28;20260;-60
2023/09/08 06:43:10;;;;;;;5.80;4.90;;;22.70;65.90;;;;;;5072613;28;20205;-60
2023/09/08 06:45:38;;;;;;;4.90;4.50;;;22.70;65.90;;;;;;5072693;28;20273;-61
2023/09/08 06:48:04;;;;;;;5.45;5.00;;;22.70;65.90;;;;;;5071738;28;20206;-61
2023/09/08 06:50:30;;;;;;;5.57;4.90;;;22.70;65.80;;;;;;5072600;28;20206;-60
2023/09/08 06:52:55;;;;;;;5.47;4.97;;;22.70;65.90;;;;;;5072574;28;20630;-60
2023/09/08 06:55:21;;;;;;;5.22;4.80;;;22.70;65.90;;;;;;5071456;28;20209;-60
2023/09/08 06:57:46;;;;;;;5.35;4.85;;;22.70;65.90;;;;;;5072852;28;20332;-60
2023/09/08 07:00:13;;;;;;;5.60;5.15;;;22.70;65.90;;;;;;5072389;28;20217;-61
2023/09/08 07:02:39;;;;;;;5.10;4.70;;;22.70;65.90;;;;;;5072094;28;20228;-60
2023/09/08 07:05:08;;;;;;;5.45;4.95;;;22.80;65.90;;;;;;5072370;28;20180;-61
2023/09/08 07:07:35;;;;;;;5.60;5.10;;;22.70;65.80;;;;;;5072475;28;20567;-61
2023/09/08 07:10:05;;;;;;;5.35;4.88;;;22.80;65.90;;;;;;5074174;28;20231;-60
2023/09/08 07:12:31;;;;;;;5.57;5.07;;;22.80;65.90;;;;;;5076501;28;20178;-60
2023/09/08 07:14:56;;;;;;;4.72;4.32;;;22.70;65.80;;;;;;5075475;28;20194;-59
2023/09/08 07:17:25;;;;;;;5.85;5.25;;;22.80;65.80;;;;;;5076113;28;20235;-60
2023/09/08 07:19:50;;;;;;;5.13;4.65;;;22.80;65.80;;;;;;5076484;28;20170;-60
2023/09/08 07:22:16;;;;;;;4.82;4.38;;;22.80;65.80;;;;;;5075221;28;20649;-61
2023/09/08 07:24:41;;;;;;;5.18;4.78;;;22.80;65.80;;;;;;5076325;28;20197;-60
2023/09/08 07:27:07;;;;;;;5.10;4.70;;;22.80;65.80;;;;;;5076033;28;20244;-59
2023/09/08 07:29:33;;;;;;;5.57;5.10;;;22.80;65.70;;;;;;5075310;28;20170;-59
2023/09/08 07:31:58;;;;;;;5.72;5.22;;;22.80;65.70;;;;;;5075939;28;20185;-59
2023/09/08 07:34:24;;;;;;;5.72;5.22;;;22.80;65.70;;;;;;5075854;28;20531;-60
2023/09/08 07:36:49;;;;;;;5.10;4.70;;;22.80;65.70;;;;;;5075240;28;20296;-61
2023/09/08 07:39:15;;;;;;;5.72;5.28;;;22.80;65.70;;;;;;5075661;28;20167;-60
2023/09/08 07:41:41;;;;;;;5.55;5.13;;;22.80;65.70;;;;;;5076070;28;20585;-61
2023/09/08 07:44:07;;;;;;;5.63;5.20;;;22.80;65.70;;;;;;5075077;28;20194;-61
2023/09/08 07:46:32;;;;;;;5.30;4.80;;;22.80;66.50;;;;;;5075774;28;20637;-61
2023/09/08 07:48:58;;;;;;;5.10;4.60;;;22.80;65.70;;;;;;5075572;28;20193;-61
2023/09/08 07:51:24;;;;;;;5.65;4.63;;;22.80;65.70;;;;;;5074933;28;20183;-60
2023/09/08 07:53:50;;;;;;;5.43;4.93;;;22.80;65.60;;;;;;5076015;28;20258;-60
2023/09/08 07:56:15;;;;;;;5.15;4.75;;;22.80;65.70;;;;;;5075253;28;20297;-59
2023/09/08 07:58:41;;;;;;;5.72;5.30;;;22.80;65.60;;;;;;5074890;28;20256;-60
2023/09/08 08:01:07;;;;;;;5.47;5.05;;;22.80;65.50;;;;;;5075489;28;20243;-60
2023/09/08 08:03:34;;;;;;;5.72;5.28;;;22.80;65.50;;;;;;5075368;28;20227;-61
2023/09/08 08:06:00;;;;;;;5.28;4.78;;;22.90;65.60;;;;;;5074386;28;20543;-61
2023/09/08 08:08:25;;;;;;;5.68;5.15;;;22.90;65.60;;;;;;5075550;28;20175;-61
2023/09/08 08:10:51;;;;;;;5.20;4.80;;;22.80;65.50;;;;;;5075680;28;20174;-60
2023/09/08 08:13:16;;;;;;;5.43;4.93;;;22.90;65.60;;;;;;5074208;28;20162;-60
2023/09/08 08:15:42;;;;;;;5.03;4.63;;;22.90;65.60;;;;;;5075425;28;20206;-60
2023/09/08 08:18:11;;;;;;;4.55;4.25;;;22.90;65.60;;;;;;5074793;28;20175;-60
2023/09/08 08:20:37;;;;;;;4.93;4.53;;;22.90;65.60;;;;;;5074630;28;20174;-60
2023/09/08 08:23:03;;;;;;;5.00;4.60;;;22.90;65.60;;;;;;5075242;28;20170;-61
2023/09/08 08:25:28;;;;;;;6.05;5.55;;;22.90;65.60;;;;;;5074131;28;20578;-60
2023/09/08 08:27:56;;;;;;;4.60;4.30;;;22.90;65.60;;;;;;5075181;28;20170;-59
2023/09/08 08:30:22;;;;;;;5.40;4.90;;;22.90;65.60;;;;;;5074759;28;20181;-60
2023/09/08 08:32:47;;;;;;;5.25;4.85;;;22.90;65.60;;;;;;5074269;28;20261;-60
2023/09/08 08:35:13;;;;;;;5.60;5.18;;;22.90;65.60;;;;;;5074520;28;20692;-60
2023/09/08 08:37:41;;;;;;;5.60;5.20;;;22.90;65.50;;;;;;5074795;28;20251;-61
2023/09/08 08:40:08;;;;;;;5.22;4.82;;;22.90;65.50;;;;;;5074039;28;20261;-60
2023/09/08 08:42:34;;;;;;;4.78;4.38;;;22.90;65.50;;;;;;5073591;28;20175;-62
2023/09/08 08:45:00;;;;;;;4.75;4.35;;;22.90;65.50;;;;;;5074805;28;20185;-61
2023/09/08 08:47:27;;;;;;;5.57;5.07;;;22.90;65.50;;;;;;5073888;28;20662;-61
2023/09/08 08:49:53;;;;;;;4.68;4.28;;;22.90;65.50;;;;;;5073432;28;20629;-60
2023/09/08 08:52:18;;;;;;;5.13;4.68;;;22.90;65.50;;;;;;5074512;28;20201;-60
2023/09/08 08:54:45;;;;;;;5.13;4.72;;;23.00;65.60;;;;;;5073683;28;20625;-60
2023/09/08 08:57:11;;;;;;;4.78;4.38;;;22.90;66.40;;;;;;5074258;28;20213;-60
2023/09/08 08:59:37;;;;;;;5.22;4.70;;;23.00;65.60;;;;;;5074357;28;20689;-60
2023/09/08 09:02:05;;;;;;;4.80;4.50;;;23.00;65.60;;;;;;5073456;28;20189;-61
2023/09/08 09:04:31;;;;;;;4.88;4.47;;;23.00;65.60;;;;;;5074766;28;20178;-61
2023/09/08 09:06:56;;;;;;;4.88;4.47;;;23.00;65.60;;;;;;5073554;28;20632;-61
2023/09/08 09:09:22;;;;;;;5.50;5.00;;;23.00;65.50;;;;;;5072274;28;20564;-61
2023/09/08 09:11:48;;;;;;;4.68;4.30;;;23.00;65.60;;;;;;5072989;28;20175;-60
2023/09/08 09:14:14;;;;;;;5.60;5.10;;;23.00;65.60;;;;;;5073757;28;20573;-60
2023/09/08 09:16:43;;;;;;;5.30;4.90;;;23.00;65.60;;;;;;5073314;28;20210;-60
2023/09/08 09:19:09;;;;;;;5.28;4.80;;;23.10;65.60;;;;;;5073831;28;20200;-60
2023/09/08 09:21:42;;;;;;;5.20;4.80;;;23.00;65.50;;;;;;5073411;28;20175;-61
2023/09/08 09:24:08;;;;;;;4.80;4.43;;;23.00;65.50;;;;;;5073873;28;20174;-60
2023/09/08 09:26:33;;;;;;;4.93;4.50;;;23.00;65.50;;;;;;5073768;28;20636;-60
2023/09/08 09:28:59;;;;;;;5.18;4.78;;;23.00;65.50;;;;;;5072845;28;20175;-59
2023/09/08 09:31:25;;;;;;;5.07;4.68;;;23.10;65.60;;;;;;5072965;28;20184;-59
2023/09/08 09:34:06;;;;;;;4.65;4.25;;;23.10;65.60;;;;;;5074066;28;20269;-60
2023/09/08 09:36:32;;;;;;;4.65;4.35;;;23.10;65.50;;;;;;5072807;28;20205;-60
2023/09/08 09:38:59;;;;;;;5.20;4.80;;;23.10;65.50;;;;;;5073414;28;20261;-60
2023/09/08 09:41:29;;;;;;;4.93;4.53;;;23.10;65.50;;;;;;5073490;28;20174;-61
2023/09/08 09:43:56;;;;;;;4.93;4.53;;;23.10;65.60;;;;;;5072833;28;20601;-60
2023/09/08 09:46:22;;;;;;;4.80;4.40;;;23.10;65.60;;;;;;5073477;28;20214;-61
2023/09/08 09:48:52;;;;;;;4.60;4.30;;;23.10;65.60;;;;;;5073728;28;20217;-61
2023/09/08 09:51:21;;;;;;;4.93;4.53;;;23.10;65.60;;;;;;5071500;28;20217;-60
2023/09/08 09:53:48;;;;;;;5.47;4.20;;;23.20;65.60;;;;;;5073513;28;20170;-60
2023/09/08 09:56:13;;;;;;;5.10;4.60;;;23.10;65.50;;;;;;5073052;28;20210;-59
2023/09/08 09:58:39;;;;;;;5.30;4.90;;;23.10;65.60;;;;;;5072446;28;20245;-59
2023/09/08 10:01:04;;;;;;;4.72;4.32;;;23.20;66.50;;;;;;5073319;28;20553;-62
2023/09/08 10:03:33;;;;;;;5.32;4.82;;;23.20;65.60;;;;;;5072065;28;20254;-61
2023/09/08 10:05:59;;;;;;;5.03;4.63;;;23.20;65.60;;;;;;5072415;28;20174;-61
2023/09/08 10:08:24;;;;;;;4.78;4.38;;;23.20;65.60;;;;;;5071942;28;20216;-61
2023/09/08 10:10:50;;;;;;;4.97;4.57;;;23.20;65.60;;;;;;5071261;28;20183;-60
2023/09/08 10:13:22;;;;;;;4.55;4.15;;;23.20;65.60;;;;;;5071552;28;20638;-60
2023/09/08 10:15:49;;;;;;;5.10;4.70;;;23.20;65.60;;;;;;5072000;28;20320;-60
2023/09/08 10:18:15;;;;;;;4.63;4.32;;;23.20;65.60;;;;;;5072120;28;20171;-60
2023/09/08 10:20:40;;;;;;;5.57;5.07;;;23.20;65.60;;;;;;5071811;28;20170;-60
2023/09/08 10:23:16;;;;;;;4.85;4.45;;;23.20;65.60;;;;;;5071521;28;20253;-60
2023/09/08 10:25:49;;;;;;;4.95;4.55;;;23.20;65.60;;;;;;5071030;28;20189;-60
2023/09/08 10:28:15;;;;;;;5.40;5.00;;;23.30;65.60;;;;;;5071655;28;20175;-59
2023/09/08 10:30:41;;;;;;;4.93;4.55;;;23.30;65.60;;;;;;5072855;28;20174;-59
2023/09/08 10:33:07;;;;;;;5.45;4.97;;;23.30;66.50;;;;;;5070742;28;20171;-60
2023/09/08 10:35:32;;;;;;;4.95;4.55;;;23.30;65.60;;;;;;5071426;28;20205;-61
2023/09/08 10:38:24;;;;;;;4.40;4.10;;;23.30;65.60;;;;;;5071320;28;20179;-61
2023/09/08 10:40:50;;;;;;;4.53;4.22;;;23.30;65.60;;;;;;5072061;28;20687;-61
2023/09/08 10:43:15;;;;;;;5.07;4.68;;;23.30;65.60;;;;;;5072426;28;20186;-61
2023/09/08 10:45:44;;;;;;;5.22;4.82;;;23.40;65.80;;;;;;5072798;28;20174;-61
2023/09/08 10:48:10;;;;;;;4.20;3.90;;;23.40;65.70;;;;;;5071639;28;20552;-61
2023/09/08 10:50:39;;;;;;;5.38;4.93;;;23.40;65.70;;;;;;5072542;28;20220;-60
2023/09/08 10:53:05;;;;;;;4.82;4.43;;;23.40;65.70;;;;;;5070788;28;20205;-60
2023/09/08 10:55:40;;;;;;;4.85;4.45;;;23.30;65.60;;;;;;5072655;28;20228;-60
2023/09/08 10:58:06;;;;;;;4.60;4.30;;;23.30;65.60;;;;;;5072618;28;20269;-59
2023/09/08 11:00:46;;;;;;;4.82;4.43;;;23.40;65.70;;;;;;5071602;28;20310;-60
2023/09/08 11:03:13;;;;;;;4.93;4.53;;;23.40;65.70;;;;;;5072322;28;20178;-60
2023/09/08 11:05:38;;;;;;;4.97;4.57;;;23.40;65.70;;;;;;5072795;28;20182;-61
2023/09/08 11:08:04;;;;;;;5.22;4.72;;;23.40;65.70;;;;;;5071676;28;20182;-61
2023/09/08 11:10:33;;;;;;;5.03;4.63;;;23.40;65.70;;;;;;5072378;28;20227;-60
2023/09/08 11:12:59;;;;;;;4.70;4.30;;;23.40;65.70;;;;;;5072440;28;20175;-60
2023/09/08 11:15:25;;;;;;;4.60;4.28;;;23.40;65.70;;;;;;5071604;28;20745;-60
2023/09/08 11:17:53;;;;;;;4.40;4.10;;;23.40;65.70;;;;;;5072664;28;20259;-60
2023/09/08 11:20:26;;;;;;;4.47;4.10;;;23.40;66.50;;;;;;5072271;28;20548;-60
2023/09/08 11:22:51;;;;;;;4.90;4.50;;;23.40;65.70;;;;;;5071812;28;20170;-60
2023/09/08 11:25:17;;;;;;;5.35;4.85;;;23.50;65.80;;;;;;5070924;28;20208;-61
2023/09/08 11:27:44;;;;;;;4.88;4.47;;;23.50;65.80;;;;;;5072396;28;20170;-60
2023/09/08 11:30:10;;;;;;;4.55;4.25;;;23.50;65.70;;;;;;5071105;28;20741;-59
2023/09/08 11:32:36;;;;;;;4.80;4.50;;;23.50;65.70;;;;;;5071038;28;20182;-60
2023/09/08 11:35:09;;;;;;;4.85;4.45;;;23.50;65.70;;;;;;5072178;28;20190;-60
2023/09/08 11:37:36;;;;;;;5.07;4.68;;;23.40;65.70;;;;;;5072323;28;20174;-61
2023/09/08 11:40:03;;;;;;;5.03;4.63;;;23.50;65.80;;;;;;5071913;28;20622;-61
2023/09/08 11:42:29;;;;;;;3.97;3.67;;;23.50;65.70;;;;;;5071339;28;20219;-62
2023/09/08 11:44:54;;;;;;;5.00;4.60;;;23.50;65.70;;;;;;5072104;28;20579;-61
2023/09/08 11:47:20;;;;;;;5.78;4.75;;;23.50;65.70;;;;;;5070603;28;20179;-61
2023/09/08 11:49:45;;;;;;;4.57;4.18;;;23.50;65.70;;;;;;5071588;28;20174;-61
2023/09/08 11:52:11;;;;;;;5.40;4.90;;;23.50;65.70;;;;;;5071946;28;20184;-60
2023/09/08 11:54:37;;;;;;;4.72;4.32;;;23.50;65.70;;;;;;5072131;28;20174;-60
2023/09/08 11:57:04;;;;;;;4.70;4.30;;;23.50;65.70;;;;;;5074676;28;20612;-59
2023/09/08 11:59:31;;;;;;;4.72;4.43;;;23.60;65.70;;;;;;5074227;28;20226;-60
2023/09/08 12:01:57;;;;;;;4.40;4.10;;;23.50;65.80;;;;;;5074402;28;20528;-61
2023/09/08 12:04:23;;;;;;;4.45;4.15;;;23.60;65.80;;;;;;5074810;28;20174;-61
2023/09/08 12:06:48;;;;;;;4.72;4.30;;;23.60;65.70;;;;;;5075445;28;20266;-61
2023/09/08 12:09:14;;;;;;;4.63;4.32;;;23.50;65.70;;;;;;5073988;28;20185;-60
2023/09/08 12:11:42;;;;;;;4.60;4.30;;;23.60;65.70;;;;;;5074689;28;20189;-60
2023/09/08 12:14:09;;;;;;;4.70;4.40;;;23.60;65.70;;;;;;5073997;28;20193;-60
2023/09/08 12:16:35;;;;;;;4.68;4.32;;;23.60;65.70;;;;;;5075431;28;20221;-60
2023/09/08 12:19:00;;;;;;;4.80;4.40;;;23.60;65.70;;;;;;5073270;28;20166;-60
2023/09/08 12:21:26;;;;;;;4.68;4.28;;;23.60;65.70;;;;;;5075246;28;20175;-61
2023/09/08 12:23:53;;;;;;;4.88;4.47;;;23.60;66.60;;;;;;5075217;28;20170;-60
2023/09/08 12:26:27;;;;;;;4.90;4.40;;;23.60;65.70;;;;;;5074107;28;20182;-62
2023/09/08 12:28:53;;;;;;;4.68;4.28;;;23.60;65.70;;;;;;5074070;28;20717;-61
2023/09/08 12:31:18;;;;;;;5.20;4.80;;;23.60;65.70;;;;;;5074978;28;20182;-61
2023/09/08 12:33:44;;;;;;;5.28;4.88;;;23.60;65.70;;;;;;5073289;28;20174;-62
2023/09/08 12:36:16;;;;;;;4.93;4.53;;;23.60;65.70;;;;;;5074668;28;20688;-62
2023/09/08 12:38:52;;;;;;;5.00;4.60;;;23.60;65.70;;;;;;5074164;28;20999;-62
2023/09/08 12:41:18;;;;;;;4.95;4.55;;;23.60;65.70;;;;;;5074467;28;20209;-62
2023/09/08 12:43:44;;;;;;;5.20;4.80;;;23.60;65.80;;;;;;5074974;28;20255;-62